createdAt,value
2018-05-18T00:02:24.604Z,1018.1
2018-05-18T00:07:24.387Z,1018
2018-05-18T00:12:24.566Z,1018.1
2018-05-18T00:17:27.716Z,1018.2
2018-05-18T00:22:27.541Z,1018.3
2018-05-18T00:27:40.089Z,1018.3
2018-05-18T00:32:39.960Z,1018.4
2018-05-18T00:37:39.797Z,1018.4
2018-05-18T00:42:40.024Z,1018.5
2018-05-18T00:47:39.823Z,1018.4
2018-05-18T00:52:39.823Z,1018.3
2018-05-18T00:57:40.024Z,1018.5
2018-05-18T01:02:40.395Z,1018.4
2018-05-18T01:07:40.289Z,1018.5
2018-05-18T01:12:52.709Z,1018.6
2018-05-18T01:17:52.515Z,1018.5
2018-05-18T01:22:52.433Z,1018.5
2018-05-18T01:27:52.609Z,1018.6
2018-05-18T01:32:52.573Z,1018.6
2018-05-18T01:37:52.571Z,1018.5
2018-05-18T01:42:52.613Z,1018.6
2018-05-18T01:47:52.662Z,1018.5
2018-05-18T01:52:53.018Z,1018.6
2018-05-18T01:58:05.112Z,1018.6
2018-05-18T02:03:05.030Z,1018.6
2018-05-18T02:08:04.812Z,1018.8
2018-05-18T02:13:05.006Z,1018.7
2018-05-18T02:18:05.168Z,1018.7
2018-05-18T02:23:05.015Z,1018.7
2018-05-18T02:28:05.230Z,1018.8
2018-05-18T02:33:05.384Z,1018.8
2018-05-18T02:38:05.402Z,1018.8
2018-05-18T02:43:17.580Z,1018.7
2018-05-18T02:48:17.426Z,1018.8
2018-05-18T02:53:17.462Z,1018.8
2018-05-18T02:58:17.510Z,1018.8
2018-05-18T03:03:18.040Z,1018.9
2018-05-18T03:08:17.330Z,1019
2018-05-18T03:13:17.489Z,1019
2018-05-18T03:18:17.323Z,1018.9
2018-05-18T03:23:17.454Z,1019
2018-05-18T03:28:20.195Z,1019.1
2018-05-18T03:33:17.470Z,1019.1
2018-05-18T03:38:17.665Z,1019.1
2018-05-18T03:43:20.480Z,1019
2018-05-18T03:48:20.410Z,1019
2018-05-18T03:53:35.688Z,1019.1
2018-05-18T03:58:35.510Z,1019.2
2018-05-18T04:03:35.565Z,1019
2018-05-18T04:08:35.428Z,1019.2
2018-05-18T04:13:35.548Z,1019.1
2018-05-18T04:18:35.568Z,1019.1
2018-05-18T04:23:35.444Z,1019.1
2018-05-18T04:28:39.542Z,1019.2
2018-05-18T04:33:39.268Z,1019.1
2018-05-18T04:38:51.621Z,1019.2
2018-05-18T04:43:51.471Z,1019.1
2018-05-18T04:48:51.362Z,1019.1
2018-05-18T04:53:51.361Z,1019.1
2018-05-18T04:58:51.734Z,1019.1
2018-05-18T05:03:51.572Z,1019.2
2018-05-18T05:08:51.373Z,1019.3
2018-05-18T05:13:51.414Z,1019.3
2018-05-18T05:18:51.389Z,1019.3
2018-05-18T05:24:03.516Z,1019.3
2018-05-18T05:29:03.486Z,1019.3
2018-05-18T05:34:03.248Z,1019.2
2018-05-18T05:39:03.255Z,1019.1
2018-05-18T05:44:03.319Z,1019.1
2018-05-18T05:49:03.251Z,1019.1
2018-05-18T05:54:03.489Z,1019.2
2018-05-18T05:59:04.098Z,1019.1
2018-05-18T06:04:04.000Z,1019.1
2018-05-18T06:09:18.066Z,1019.1
2018-05-18T06:14:18.016Z,1019.1
2018-05-18T06:19:18.047Z,1019.1
2018-05-18T06:24:17.989Z,1019.2
2018-05-18T06:29:18.179Z,1019.2
2018-05-18T06:34:18.050Z,1019.2
2018-05-18T06:39:17.957Z,1019
2018-05-18T06:44:18.552Z,1019
2018-05-18T06:49:18.458Z,1019
2018-05-18T06:54:31.135Z,1019
2018-05-18T06:59:30.914Z,1019.1
2018-05-18T07:04:30.922Z,1019
2018-05-18T07:09:30.967Z,1019.1
2018-05-18T07:14:30.823Z,1019.1
2018-05-18T07:19:30.962Z,1019.1
2018-05-18T07:24:30.979Z,1019.2
2018-05-18T07:29:31.139Z,1019.1
2018-05-18T07:34:31.050Z,1019
2018-05-18T07:39:43.129Z,1019.2
2018-05-18T07:44:42.845Z,1019
2018-05-18T07:49:43.015Z,1019.1
2018-05-18T07:54:46.213Z,1019.3
2018-05-18T07:59:43.080Z,1019.3
2018-05-18T08:04:43.128Z,1019.3
2018-05-18T08:09:43.162Z,1019.3
2018-05-18T08:14:43.608Z,1019.2
2018-05-18T08:19:43.438Z,1019.1
2018-05-18T08:24:57.616Z,1019.2
2018-05-18T08:29:57.564Z,1019.2
2018-05-18T08:34:57.467Z,1019.2
2018-05-18T08:39:57.502Z,1019.2
2018-05-18T08:44:57.511Z,1019.3
2018-05-18T08:49:57.445Z,1019.2
2018-05-18T08:54:57.492Z,1019.1
2018-05-18T09:00:02.254Z,1019.1
2018-05-18T09:04:59.303Z,1019.3
2018-05-18T09:10:11.848Z,1019.2
2018-05-18T09:15:11.759Z,1019.2
2018-05-18T09:20:11.804Z,1019.1
2018-05-18T09:25:11.643Z,1018.9
2018-05-18T09:30:11.607Z,1018.9
2018-05-18T09:35:11.643Z,1019
2018-05-18T09:40:11.831Z,1018.9
2018-05-18T09:45:14.269Z,1019.1
2018-05-18T09:50:13.866Z,1019.2
2018-05-18T09:55:28.200Z,1019.2
2018-05-18T10:00:28.137Z,1019.2
2018-05-18T10:05:28.316Z,1019
2018-05-18T10:10:28.342Z,1019
2018-05-18T10:15:28.409Z,1019
2018-05-18T10:20:28.261Z,1018.9
2018-05-18T10:25:28.327Z,1018.8
2018-05-18T10:30:29.584Z,1018.7
2018-05-18T10:35:29.530Z,1018.7
2018-05-18T10:40:41.653Z,1018.6
2018-05-18T10:45:41.392Z,1018.7
2018-05-18T10:50:41.593Z,1018.7
2018-05-18T10:55:41.373Z,1018.7
2018-05-18T11:00:41.548Z,1018.8
2018-05-18T11:05:41.754Z,1018.8
2018-05-18T11:10:41.926Z,1018.6
2018-05-18T11:15:44.636Z,1018.6
2018-05-18T11:20:44.515Z,1018.4
2018-05-18T11:25:57.099Z,1018.4
2018-05-18T11:30:57.011Z,1018.4
2018-05-18T11:35:56.859Z,1018.3
2018-05-18T11:40:56.991Z,1018.1
2018-05-18T11:45:57.060Z,1018.2
2018-05-18T11:50:56.849Z,1018.1
2018-05-18T11:55:56.858Z,1017.8
2018-05-18T12:00:57.900Z,1017.7
2018-05-18T12:05:57.926Z,1017.5
2018-05-18T12:11:10.906Z,1017.7
2018-05-18T12:16:10.473Z,1017.5
2018-05-18T12:21:10.705Z,1017.4
2018-05-18T12:26:11.019Z,1017.4
2018-05-18T12:31:10.808Z,1017.4
2018-05-18T12:36:10.685Z,1017.1
2018-05-18T12:41:10.501Z,1017.2
2018-05-18T12:46:11.103Z,1017.2
2018-05-18T12:51:11.056Z,1017.1
2018-05-18T12:56:23.800Z,1017.2
2018-05-18T13:01:23.571Z,1017.2
2018-05-18T13:06:23.557Z,1017.1
2018-05-18T13:11:23.710Z,1016.9
2018-05-18T13:16:26.541Z,1016.7
2018-05-18T13:21:23.583Z,1016.8
2018-05-18T13:26:23.720Z,1016.8
2018-05-18T13:31:23.751Z,1016.8
2018-05-18T13:36:23.773Z,1016.7
2018-05-18T13:41:23.813Z,1016.7
2018-05-18T13:46:23.684Z,1016.8
2018-05-18T13:51:23.565Z,1016.7
2018-05-18T13:56:24.051Z,1016.7
2018-05-18T14:01:23.942Z,1016.7
2018-05-18T14:06:36.792Z,1016.6
2018-05-18T14:11:36.699Z,1016.7
2018-05-18T14:16:36.642Z,1016.7
2018-05-18T14:21:36.526Z,1016.7
2018-05-18T14:26:36.704Z,1016.8
2018-05-18T14:31:36.741Z,1016.7
2018-05-18T14:36:36.671Z,1016.5
2018-05-18T14:41:37.293Z,1016.6
2018-05-18T14:46:36.986Z,1016.5
2018-05-18T14:51:49.403Z,1016.4
2018-05-18T14:56:49.041Z,1016.9
2018-05-18T15:01:49.009Z,1017.2
2018-05-18T15:06:49.061Z,1017.3
2018-05-18T15:11:49.046Z,1017.2
2018-05-18T15:16:49.041Z,1017.2
2018-05-18T15:21:49.275Z,1017.2
2018-05-18T15:26:51.777Z,1017.3
2018-05-18T15:31:51.489Z,1017.4
2018-05-18T15:37:04.911Z,1017
2018-05-18T15:42:04.879Z,1017.1
2018-05-18T15:47:04.794Z,1017.2
2018-05-18T15:52:04.834Z,1017.2
2018-05-18T15:57:04.827Z,1017.3
2018-05-18T16:02:04.693Z,1017.3
2018-05-18T16:07:04.831Z,1017.3
2018-05-18T16:12:06.171Z,1017.4
2018-05-18T16:17:06.140Z,1017.3
2018-05-18T16:22:18.538Z,1017.4
2018-05-18T16:27:18.260Z,1017.5
2018-05-18T16:32:18.289Z,1017.4
2018-05-18T16:37:18.281Z,1017.4
2018-05-18T16:42:18.285Z,1017.3
2018-05-18T16:47:18.303Z,1017.2
2018-05-18T16:52:18.301Z,1017.3
2018-05-18T16:57:18.292Z,1017.2
2018-05-18T17:02:18.244Z,1017.1
2018-05-18T17:07:18.301Z,1017.1
2018-05-18T17:12:18.298Z,1017.2
2018-05-18T17:17:21.571Z,1017.4
2018-05-18T17:22:19.488Z,1017.4
2018-05-18T17:27:19.252Z,1017.5
2018-05-18T17:32:30.298Z,1017.5
2018-05-18T17:37:30.053Z,1017.5
2018-05-18T17:42:30.316Z,1017.6
2018-05-18T17:47:30.064Z,1017.7
2018-05-18T17:52:30.107Z,1017.6
2018-05-18T17:57:30.081Z,1017.7
2018-05-18T18:02:30.105Z,1017.7
2018-05-18T18:07:30.096Z,1017.7
2018-05-18T18:12:30.036Z,1017.7
2018-05-18T18:17:41.937Z,1017.7
2018-05-18T18:22:41.611Z,1017.8
2018-05-18T18:27:41.642Z,1017.8
2018-05-18T18:32:41.656Z,1017.9
2018-05-18T18:37:41.883Z,1018
2018-05-18T18:42:41.891Z,1018
2018-05-18T18:47:41.930Z,1018.1
2018-05-18T18:52:41.881Z,1018.2
2018-05-18T18:57:41.914Z,1018.3
2018-05-18T19:02:55.437Z,1018.4
2018-05-18T19:07:55.462Z,1018.4
2018-05-18T19:12:55.178Z,1018.6
2018-05-18T19:17:55.206Z,1018.7
2018-05-18T19:22:55.104Z,1018.7
2018-05-18T19:27:55.588Z,1018.7
2018-05-18T19:32:55.375Z,1018.7
2018-05-18T19:37:55.633Z,1018.7
2018-05-18T19:42:55.209Z,1018.8
2018-05-18T19:48:07.912Z,1018.8
2018-05-18T19:53:09.610Z,1018.9
2018-05-18T19:58:07.617Z,1018.9
2018-05-18T20:03:09.154Z,1019
2018-05-18T20:08:07.603Z,1019.1
2018-05-18T20:13:07.686Z,1019.1
2018-05-18T20:18:07.652Z,1019.1
2018-05-18T20:23:07.638Z,1019.1
2018-05-18T20:28:07.951Z,1019.2
2018-05-18T20:33:19.698Z,1019.2
2018-05-18T20:38:19.460Z,1019.2
2018-05-18T20:43:19.443Z,1019.2
2018-05-18T20:48:19.438Z,1019.3
2018-05-18T20:53:19.509Z,1019.3
2018-05-18T20:58:19.456Z,1019.3
2018-05-18T21:03:19.453Z,1019.1
2018-05-18T21:08:22.560Z,1019.2
2018-05-18T21:13:22.249Z,1019.2
2018-05-18T21:18:34.794Z,1019.4
2018-05-18T21:23:34.156Z,1019.4
2018-05-18T21:28:34.151Z,1019.4
2018-05-18T21:33:34.175Z,1019.4
2018-05-18T21:38:34.178Z,1019.4
2018-05-18T21:43:34.166Z,1019.4
2018-05-18T21:48:34.155Z,1019.5
2018-05-18T21:53:35.237Z,1019.6
2018-05-18T21:58:35.486Z,1019.7
2018-05-18T22:03:47.272Z,1019.9
2018-05-18T22:08:46.957Z,1019.8
2018-05-18T22:13:46.958Z,1019.7
2018-05-18T22:18:46.956Z,1019.6
2018-05-18T22:23:47.088Z,1019.5
2018-05-18T22:28:47.087Z,1019.5
2018-05-18T22:33:47.294Z,1019.4
2018-05-18T22:38:47.086Z,1019.3
2018-05-18T22:43:47.104Z,1019.2
2018-05-18T22:48:59.518Z,1019.1
2018-05-18T22:53:59.205Z,1019.3
2018-05-18T22:58:59.196Z,1019.1
2018-05-18T23:03:59.360Z,1019.2
2018-05-18T23:08:59.217Z,1019.3
2018-05-18T23:13:59.215Z,1019.4
2018-05-18T23:18:59.222Z,1019.4
2018-05-18T23:23:59.223Z,1019.3
2018-05-18T23:28:59.241Z,1019.2
2018-05-18T23:34:14.282Z,1019.2
2018-05-18T23:39:14.142Z,1019.2
2018-05-18T23:44:14.016Z,1019.2
2018-05-18T23:49:13.975Z,1019.2
2018-05-18T23:54:13.995Z,1019.1
2018-05-18T23:59:14.192Z,1019.1
